To NAV CANADA Home Page Login to a new session Search on AWWS site Feedback and Comments Disclaimer Vers la page française équivalente Tips FAQ What's new on the site To the Forecasts and Observations / NOTAM section To "File a Flight Plan" website Publications and other links Update of the User's profile FIC Telephone Numbers My Weather Data Folder Route Weather Data Regional Weather Data Local Weather Data To the Forecasts and Observations / NOTAM section
Request Generated 08/02/2015 at 20:21:19 UTC . Weather information available at that time is displayed.

METAR/TAF

OTTAWA/GATINEAU/QC    

METAR CYND 022000Z 20010G20KT 15SM SCT045 BKN240 27/16 A2971 RMK
CU3CI3 MDT CU ASOCTD SLP061 DENSITY ALT 1800FT=
METAR CYND 021900Z 21006G16KT 170V250 15SM SCT052 BKN240 28/17 A2973
RMK CU3CI3 SLP066 DENSITY ALT 1900FT=
METAR CYND 021800Z 23011KT 180V250 15SM BKN048 27/16 A2975 RMK CU6
SLP074 DENSITY ALT 1800FT=

TAF CYND 021738Z 0218/0301 23010KT P6SM SCT050 BKN220
BECMG 0222/0224 19010KT
RMK NXT FCST WILL BE ISSUED AT 031245Z=
Your time UTC time
Weather data provided by Environment Canada and NAV CANADA